Time;durP1;ratioP1;P1;durP2;ratioP2;P2;SDS_P1;SDS_P2;PMS_P1;PMS_P2;Temp;Humidity;BMP_temperature;BMP_pressure;BME280_temperature;BME280_humidity;BME280_pressure;Samples;Min_cycle;Max_cycle;Signal;HPM_P1;HPM_P2
2023/03/20 00:02:09;;;;;;;25.73;18.40;;;12.60;97.80;;;;;;5091598;28;20253;-66
2023/03/20 00:04:37;;;;;;;20.43;17.07;;;12.60;97.80;;;;;;5089421;28;20228;-66
2023/03/20 00:07:04;;;;;;;22.00;18.23;;;12.60;97.60;;;;;;5091844;28;20637;-66
2023/03/20 00:09:31;;;;;;;21.87;17.97;;;12.50;97.70;;;;;;5092210;28;20220;-66
2023/03/20 00:11:59;;;;;;;23.67;17.10;;;12.60;97.70;;;;;;5090179;28;20204;-66
2023/03/20 00:14:26;;;;;;;22.07;17.50;;;12.60;97.80;;;;;;5089279;28;20200;-66
2023/03/20 00:16:53;;;;;;;20.57;17.47;;;12.50;97.80;;;;;;5090211;28;20287;-66
2023/03/20 00:19:22;;;;;;;18.50;15.87;;;12.60;97.90;;;;;;5083411;28;20211;-66
2023/03/20 00:21:51;;;;;;;27.03;17.77;;;12.60;97.90;;;;;;5091934;28;20231;-66
2023/03/20 00:24:19;;;;;;;22.23;17.20;;;12.60;97.90;;;;;;5090927;28;20662;-66
2023/03/20 00:26:47;;;;;;;22.97;17.57;;;12.60;97.90;;;;;;5093865;28;20287;-68
2023/03/20 00:29:26;;;;;;;23.10;16.97;;;12.60;97.90;;;;;;5100512;28;20259;-66
2023/03/20 00:31:54;;;;;;;23.50;16.17;;;12.60;97.90;;;;;;5092469;28;20296;-66
2023/03/20 00:34:24;;;;;;;22.17;17.37;;;12.60;97.90;;;;;;5091827;28;20280;-66
2023/03/20 00:36:52;;;;;;;19.00;16.20;;;12.60;97.90;;;;;;5090097;28;20193;-66
2023/03/20 00:39:20;;;;;;;22.67;16.93;;;12.70;97.90;;;;;;5091235;28;20196;-66
2023/03/20 00:41:51;;;;;;;23.07;16.83;;;12.70;97.90;;;;;;5091145;28;20201;-66
2023/03/20 00:44:31;;;;;;;25.30;16.90;;;12.70;97.80;;;;;;5091738;28;20575;-66
2023/03/20 00:47:15;;;;;;;23.47;17.30;;;12.60;97.80;;;;;;5087122;28;20213;-66
2023/03/20 00:49:44;;;;;;;23.47;17.37;;;12.60;97.80;;;;;;5090965;28;20220;-66
2023/03/20 00:52:18;;;;;;;26.23;17.53;;;12.60;97.70;;;;;;5091324;28;20199;-66
2023/03/20 00:54:45;;;;;;;21.17;16.70;;;12.60;97.70;;;;;;5078356;28;20293;-65
2023/03/20 00:57:23;;;;;;;23.77;16.27;;;12.60;97.70;;;;;;5088181;28;20200;-65
2023/03/20 01:00:01;;;;;;;25.50;17.87;;;12.60;97.80;;;;;;5104936;28;20197;-66
2023/03/20 01:02:29;;;;;;;30.13;17.40;;;12.60;97.80;;;;;;5090317;28;20208;-66
2023/03/20 01:04:59;;;;;;;24.80;16.87;;;12.50;97.80;;;;;;5090451;28;20265;-66
2023/03/20 01:07:26;;;;;;;23.77;17.03;;;12.50;97.80;;;;;;5093074;28;20596;-66
2023/03/20 01:09:54;;;;;;;25.97;16.57;;;12.50;97.90;;;;;;5093749;28;20220;-65
2023/03/20 01:12:21;;;;;;;26.60;17.87;;;12.50;97.90;;;;;;5085808;28;20664;-66
2023/03/20 01:14:54;;;;;;;23.90;17.90;;;12.50;97.90;;;;;;5093156;28;20201;-65
2023/03/20 01:17:24;;;;;;;22.57;18.17;;;12.50;97.90;;;;;;5085633;28;20216;-65
2023/03/20 01:19:52;;;;;;;23.00;17.87;;;12.50;97.90;;;;;;5092293;28;20204;-66
2023/03/20 01:22:19;;;;;;;23.80;17.93;;;12.40;97.90;;;;;;5091750;28;20285;-66
2023/03/20 01:24:46;;;;;;;26.77;18.03;;;12.50;98.00;;;;;;5088349;28;20213;-66
2023/03/20 01:27:16;;;;;;;26.67;19.67;;;12.40;98.00;;;;;;5088310;28;20225;-65
2023/03/20 01:29:43;;;;;;;23.77;19.57;;;12.40;98.10;;;;;;5092107;28;20220;-65
2023/03/20 01:32:16;;;;;;;25.33;20.40;;;12.40;98.10;;;;;;5091946;28;20645;-65
2023/03/20 01:34:47;;;;;;;29.30;20.90;;;12.50;98.10;;;;;;5089727;28;20201;-68
2023/03/20 01:37:26;;;;;;;29.37;23.23;;;12.50;98.10;;;;;;5092585;28;20197;-66
2023/03/20 01:39:58;;;;;;;29.83;23.07;;;12.40;98.20;;;;;;5084799;28;20589;-66
2023/03/20 01:42:25;;;;;;;29.27;21.73;;;12.40;98.20;;;;;;5086791;28;20204;-65
2023/03/20 01:44:52;;;;;;;26.50;21.67;;;12.50;98.20;;;;;;5091915;28;20325;-65
2023/03/20 01:47:23;;;;;;;30.47;22.37;;;12.50;98.50;;;;;;5079601;28;20573;-66
2023/03/20 01:50:13;;;;;;;30.70;23.23;;;12.50;98.30;;;;;;5092160;28;20234;-65
2023/03/20 01:52:40;;;;;;;27.17;22.63;;;12.50;98.30;;;;;;5077305;28;20204;-65
2023/03/20 01:55:08;;;;;;;30.70;22.93;;;12.50;98.30;;;;;;5085140;28;20250;-65
2023/03/20 01:57:37;;;;;;;30.07;24.07;;;12.50;98.30;;;;;;5092665;28;20268;-65
2023/03/20 02:00:14;;;;;;;32.87;24.63;;;12.50;98.20;;;;;;5094962;28;20192;-66
2023/03/20 02:02:43;;;;;;;31.43;23.87;;;12.50;98.30;;;;;;5096517;28;20206;-66
2023/03/20 02:05:16;;;;;;;31.83;23.53;;;12.50;98.30;;;;;;5084190;28;20279;-65
2023/03/20 02:07:49;;;;;;;33.83;24.87;;;12.50;98.20;;;;;;5104536;28;20212;-65
2023/03/20 02:10:18;;;;;;;35.17;24.90;;;12.50;98.20;;;;;;5084333;28;20231;-65
2023/03/20 02:13:02;;;;;;;33.10;24.17;;;12.40;98.00;;;;;;5094474;28;20193;-65
2023/03/20 02:16:03;;;;;;;36.87;25.23;;;12.40;98.00;;;;;;5093296;28;20209;-66
2023/03/20 02:18:56;;;;;;;32.27;24.40;;;12.30;97.90;;;;;;5087412;28;20208;-65
2023/03/20 02:21:54;;;;;;;31.40;23.83;;;12.30;97.90;;;;;;5093257;28;20201;-65
2023/03/20 02:24:28;;;;;;;38.17;25.77;;;12.20;97.90;;;;;;5093274;28;20216;-65
2023/03/20 02:27:24;;;;;;;38.17;24.80;;;12.30;98.00;;;;;;5089912;28;20525;-65
2023/03/20 02:30:16;;;;;;;34.97;24.60;;;12.20;97.90;;;;;;5091267;28;20221;-66
2023/03/20 02:32:59;;;;;;;35.83;24.40;;;12.20;98.00;;;;;;5099097;28;20209;-65
2023/03/20 02:35:42;;;;;;;34.67;24.47;;;12.20;98.00;;;;;;5084544;28;20268;-65
2023/03/20 02:38:30;;;;;;;35.20;25.40;;;12.20;98.00;;;;;;5093938;28;20207;-65
2023/03/20 02:41:25;;;;;;;30.03;23.63;;;12.20;98.00;;;;;;5090753;28;20304;-65
2023/03/20 02:44:14;;;;;;;33.30;24.30;;;12.20;98.00;;;;;;5096755;28;20248;-65
2023/03/20 02:47:02;;;;;;;34.37;24.77;;;12.20;98.00;;;;;;5094046;28;20213;-66
2023/03/20 02:49:47;;;;;;;36.37;25.20;;;12.20;97.90;;;;;;5094505;28;20196;-65
2023/03/20 02:52:35;;;;;;;34.17;24.80;;;12.20;97.90;;;;;;5099463;28;20197;-65
2023/03/20 02:55:05;;;;;;;35.67;24.93;;;12.20;97.90;;;;;;5094057;28;20197;-65
2023/03/20 02:57:55;;;;;;;34.67;25.07;;;12.10;97.90;;;;;;5075560;28;20213;-65
2023/03/20 03:00:35;;;;;;;37.53;26.40;;;12.20;98.00;;;;;;5090636;28;20303;-65
2023/03/20 03:03:40;;;;;;;33.97;25.00;;;12.10;97.90;;;;;;5089281;28;20544;-65
2023/03/20 03:06:22;;;;;;;31.53;24.07;;;12.10;98.20;;;;;;5082477;28;20299;-65
2023/03/20 03:08:54;;;;;;;34.77;22.97;;;12.10;97.90;;;;;;5072540;28;20208;-65
2023/03/20 03:11:21;;;;;;;38.50;24.83;;;12.10;97.90;;;;;;5090401;28;20245;-65
2023/03/20 03:13:54;;;;;;;35.63;24.93;;;12.10;97.80;;;;;;5089157;28;20216;-65
2023/03/20 03:16:29;;;;;;;33.17;24.73;;;12.10;97.80;;;;;;5088687;28;20232;-65
2023/03/20 03:19:22;;;;;;;34.43;23.43;;;12.10;97.80;;;;;;5081352;28;20262;-65
2023/03/20 03:21:50;;;;;;;39.43;25.43;;;12.00;97.80;;;;;;5093200;28;20203;-65
2023/03/20 03:24:26;;;;;;;38.73;27.53;;;12.00;97.80;;;;;;5090308;28;20311;-65
2023/03/20 03:27:48;;;;;;;37.07;25.07;;;12.00;97.80;;;;;;5088377;28;20634;-65
2023/03/20 03:30:20;;;;;;;35.43;26.13;;;12.10;97.90;;;;;;5033259;28;20664;-65
2023/03/20 03:33:31;;;;;;;35.67;26.53;;;12.00;97.80;;;;;;5034735;28;20236;-66
2023/03/20 03:36:10;;;;;;;35.50;26.30;;;12.00;97.80;;;;;;5080648;28;20236;-65
2023/03/20 03:38:57;;;;;;;40.37;27.50;;;12.00;97.80;;;;;;5091057;28;20214;-65
2023/03/20 03:41:34;;;;;;;36.80;25.73;;;12.00;97.80;;;;;;5092868;28;20634;-65
2023/03/20 03:44:15;;;;;;;39.27;28.10;;;12.00;97.80;;;;;;5088867;28;20227;-65
2023/03/20 03:46:56;;;;;;;37.97;27.93;;;12.00;97.80;;;;;;5088461;28;20213;-65
2023/03/20 03:49:30;;;;;;;41.47;29.37;;;11.90;97.70;;;;;;5079121;28;20205;-65
2023/03/20 03:52:03;;;;;;;40.67;28.97;;;11.90;97.70;;;;;;5086469;28;20216;-65
2023/03/20 03:54:36;;;;;;;42.37;29.90;;;11.90;97.70;;;;;;5080227;28;20211;-66
2023/03/20 03:57:36;;;;;;;48.93;30.67;;;11.90;97.80;;;;;;5087811;28;20229;-66
2023/03/20 04:00:10;;;;;;;47.80;30.40;;;11.90;97.80;;;;;;5080665;28;20208;-66
2023/03/20 04:02:45;;;;;;;44.67;31.30;;;11.80;97.70;;;;;;5092699;28;20654;-65
2023/03/20 04:05:14;;;;;;;46.10;30.23;;;11.80;97.70;;;;;;5089219;28;20247;-66
2023/03/20 04:07:47;;;;;;;44.40;30.43;;;11.80;97.70;;;;;;5082137;28;20194;-65
2023/03/20 04:10:16;;;;;;;43.13;30.67;;;11.80;97.80;;;;;;5089275;28;20255;-65
2023/03/20 04:12:44;;;;;;;48.00;30.80;;;11.80;97.80;;;;;;5090543;28;20194;-66
2023/03/20 04:15:14;;;;;;;47.63;32.73;;;11.80;97.80;;;;;;5091592;28;20656;-66
2023/03/20 04:17:42;;;;;;;47.07;30.40;;;11.80;97.80;;;;;;5092397;28;20207;-65
2023/03/20 04:20:12;;;;;;;44.57;31.10;;;11.80;97.80;;;;;;5107488;28;20635;-65
2023/03/20 04:22:39;;;;;;;41.93;30.50;;;11.80;97.80;;;;;;5092687;28;20204;-65
2023/03/20 04:25:18;;;;;;;42.40;30.30;;;11.80;97.70;;;;;;5085766;28;20223;-65
2023/03/20 04:27:47;;;;;;;46.93;30.43;;;11.80;97.70;;;;;;5093119;28;20292;-66
2023/03/20 04:30:23;;;;;;;43.13;30.23;;;11.80;97.60;;;;;;5090260;28;20644;-65
2023/03/20 04:33:09;;;;;;;45.43;30.40;;;11.80;97.60;;;;;;5092052;28;20205;-66
2023/03/20 04:35:45;;;;;;;49.27;29.93;;;11.80;97.60;;;;;;5100482;28;20206;-65
2023/03/20 04:38:15;;;;;;;46.50;28.60;;;11.80;97.70;;;;;;5092149;28;20208;-65
2023/03/20 04:40:44;;;;;;;44.10;29.90;;;11.70;97.70;;;;;;5086804;28;20222;-65
2023/03/20 04:43:11;;;;;;;40.50;29.33;;;11.80;97.80;;;;;;5079470;28;20244;-65
2023/03/20 04:45:39;;;;;;;36.90;26.17;;;11.70;97.80;;;;;;5091237;28;20224;-65
2023/03/20 04:48:07;;;;;;;39.37;26.47;;;11.70;97.70;;;;;;5091898;28;20232;-65
2023/03/20 04:50:35;;;;;;;36.87;25.97;;;11.80;97.80;;;;;;5091446;28;20215;-65
2023/03/20 04:53:03;;;;;;;36.20;25.80;;;11.80;97.80;;;;;;5091854;28;20549;-66
2023/03/20 04:55:30;;;;;;;34.57;24.17;;;11.80;97.80;;;;;;5090850;28;20201;-65
2023/03/20 04:57:57;;;;;;;35.83;24.53;;;11.80;97.80;;;;;;5091781;28;20204;-65
2023/03/20 05:00:25;;;;;;;37.30;24.77;;;11.80;97.80;;;;;;5092481;28;20208;-65
2023/03/20 05:02:52;;;;;;;34.57;23.73;;;11.80;97.80;;;;;;5090503;28;20217;-66
2023/03/20 05:05:19;;;;;;;40.17;24.73;;;11.80;97.80;;;;;;5091497;28;20224;-66
2023/03/20 05:07:47;;;;;;;34.93;24.07;;;11.90;97.80;;;;;;5091990;28;20288;-65
2023/03/20 05:10:21;;;;;;;30.93;22.60;;;11.90;97.70;;;;;;5091507;28;20199;-66
2023/03/20 05:12:56;;;;;;;35.23;23.80;;;11.90;97.70;;;;;;5089630;28;20622;-65
2023/03/20 05:15:31;;;;;;;38.20;24.00;;;11.90;97.50;;;;;;5091791;28;20197;-66
2023/03/20 05:18:27;;;;;;;35.20;23.57;;;11.90;97.40;;;;;;5049266;28;20691;-65
2023/03/20 05:21:10;;;;;;;36.47;24.33;;;11.80;97.40;;;;;;5090858;28;20197;-65
2023/03/20 05:23:56;;;;;;;34.47;24.03;;;11.80;97.50;;;;;;5083433;28;20211;-65
2023/03/20 05:26:41;;;;;;;34.87;24.20;;;11.80;97.60;;;;;;5090295;28;20364;-66
2023/03/20 05:29:37;;;;;;;37.07;24.97;;;11.80;97.60;;;;;;5092224;28;20516;-65
2023/03/20 05:32:37;;;;;;;32.77;22.57;;;11.80;97.60;;;;;;5081563;28;20299;-66
2023/03/20 05:35:11;;;;;;;37.27;24.07;;;11.80;97.50;;;;;;5092602;28;20674;-65
2023/03/20 05:37:46;;;;;;;37.60;24.83;;;11.80;97.50;;;;;;5095757;28;20203;-66
2023/03/20 05:40:32;;;;;;;33.90;24.67;;;11.80;97.60;;;;;;5094206;28;20305;-66
2023/03/20 05:43:27;;;;;;;34.53;26.00;;;11.80;97.60;;;;;;5093488;28;20640;-65
2023/03/20 05:46:12;;;;;;;42.83;28.33;;;11.80;97.70;;;;;;5080989;28;20312;-66
2023/03/20 05:48:39;;;;;;;38.97;27.90;;;11.80;97.70;;;;;;5096558;28;20235;-66
2023/03/20 05:51:26;;;;;;;39.90;27.00;;;11.80;97.70;;;;;;5090271;28;20589;-66
2023/03/20 05:54:10;;;;;;;38.03;25.60;;;11.80;97.80;;;;;;5086046;28;20206;-65
2023/03/20 05:56:40;;;;;;;38.90;25.50;;;11.80;97.80;;;;;;5096466;28;20625;-66
2023/03/20 05:59:25;;;;;;;34.43;23.97;;;11.80;97.90;;;;;;5094689;28;20331;-65
2023/03/20 06:02:11;;;;;;;38.50;25.17;;;11.80;98.00;;;;;;5095730;28;20315;-66
2023/03/20 06:04:45;;;;;;;40.17;27.10;;;11.70;98.10;;;;;;5100711;28;20200;-66
2023/03/20 06:07:32;;;;;;;41.23;26.67;;;11.70;98.30;;;;;;5092692;28;20637;-66
2023/03/20 06:10:04;;;;;;;36.20;25.63;;;11.70;98.40;;;;;;5093078;28;20206;-66
2023/03/20 06:12:31;;;;;;;38.47;26.77;;;11.70;98.50;;;;;;5087290;28;20239;-66
2023/03/20 06:14:59;;;;;;;41.23;26.70;;;11.70;98.60;;;;;;5093644;28;20288;-66
2023/03/20 06:17:29;;;;;;;36.07;25.10;;;11.70;98.70;;;;;;5090402;28;20211;-66
2023/03/20 06:20:01;;;;;;;40.60;26.77;;;11.70;98.70;;;;;;5091907;28;20595;-66
2023/03/20 06:22:29;;;;;;;38.53;27.93;;;11.70;98.80;;;;;;5094079;28;20264;-66
2023/03/20 06:24:56;;;;;;;40.60;26.47;;;11.70;98.90;;;;;;5092193;28;20281;-66
2023/03/20 06:27:30;;;;;;;38.00;26.87;;;11.70;98.90;;;;;;5094632;28;20209;-66
2023/03/20 06:29:57;;;;;;;39.13;26.00;;;11.70;99.00;;;;;;5094630;28;20201;-66
2023/03/20 06:32:30;;;;;;;35.60;24.50;;;11.70;99.00;;;;;;5094423;28;20202;-66
2023/03/20 06:34:59;;;;;;;35.50;24.50;;;11.70;99.20;;;;;;5094263;28;20211;-66
2023/03/20 06:37:26;;;;;;;40.43;25.70;;;11.70;99.20;;;;;;5096063;28;20628;-66
2023/03/20 06:40:00;;;;;;;40.97;24.40;;;11.70;99.40;;;;;;5094020;28;20208;-66
2023/03/20 06:42:29;;;;;;;37.07;23.33;;;11.60;99.40;;;;;;5094572;28;20207;-66
2023/03/20 06:44:56;;;;;;;33.10;22.70;;;11.60;99.40;;;;;;5084942;28;20234;-66
2023/03/20 06:47:42;;;;;;;36.40;24.97;;;11.60;99.50;;;;;;5093563;28;20649;-66
2023/03/20 06:50:09;;;;;;;37.60;23.07;;;11.60;99.60;;;;;;5093515;28;20259;-66
2023/03/20 06:52:37;;;;;;;38.77;22.83;;;11.60;99.60;;;;;;5092233;28;20267;-66
2023/03/20 06:55:22;;;;;;;32.20;23.03;;;11.70;99.60;;;;;;5092157;28;20294;-66
2023/03/20 06:57:49;;;;;;;38.00;25.23;;;11.70;99.60;;;;;;5092568;28;20270;-66
2023/03/20 07:00:19;;;;;;;34.57;23.80;;;11.70;99.60;;;;;;5092608;28;20216;-66
2023/03/20 07:02:47;;;;;;;35.13;25.10;;;11.80;99.70;;;;;;5091844;28;20586;-66
2023/03/20 07:05:16;;;;;;;34.33;24.40;;;11.80;99.70;;;;;;5091971;28;20326;-67
2023/03/20 07:07:44;;;;;;;42.87;26.83;;;11.90;99.60;;;;;;5091875;28;20211;-66
2023/03/20 07:10:11;;;;;;;37.17;26.23;;;11.90;99.60;;;;;;5099992;28;20224;-66
2023/03/20 07:12:40;;;;;;;36.90;26.13;;;11.90;99.50;;;;;;5092008;28;20207;-66
2023/03/20 07:15:07;;;;;;;36.23;25.37;;;11.90;99.50;;;;;;5093478;28;20228;-66
2023/03/20 07:17:35;;;;;;;39.13;26.67;;;12.00;99.50;;;;;;5082663;28;20209;-66
2023/03/20 07:20:03;;;;;;;41.60;28.20;;;12.00;99.40;;;;;;5082295;28;20229;-66
2023/03/20 07:22:30;;;;;;;35.63;24.87;;;12.00;99.40;;;;;;5085701;28;20212;-66
2023/03/20 07:25:12;;;;;;;31.90;25.03;;;12.00;99.40;;;;;;5075533;28;20226;-66
2023/03/20 07:27:40;;;;;;;36.43;26.23;;;12.10;99.30;;;;;;5084229;28;20573;-66
2023/03/20 07:30:08;;;;;;;38.47;27.47;;;12.10;99.30;;;;;;5092785;28;20210;-66
2023/03/20 07:32:36;;;;;;;37.37;27.77;;;12.10;99.20;;;;;;5093667;28;20201;-66
2023/03/20 07:35:04;;;;;;;33.47;25.97;;;12.20;99.20;;;;;;5099540;28;20201;-66
2023/03/20 07:37:31;;;;;;;37.70;27.30;;;12.20;99.20;;;;;;5076629;28;20652;-66
2023/03/20 07:40:01;;;;;;;41.90;29.37;;;12.20;99.10;;;;;;5092095;28;20204;-66
2023/03/20 07:42:33;;;;;;;44.60;29.97;;;12.20;99.00;;;;;;5093332;28;20296;-66
2023/03/20 07:45:12;;;;;;;36.87;27.60;;;12.20;98.80;;;;;;5085290;28;20200;-66
2023/03/20 07:47:47;;;;;;;37.80;28.00;;;12.20;98.90;;;;;;5090834;28;20576;-66
2023/03/20 07:50:15;;;;;;;40.97;28.13;;;12.20;98.90;;;;;;5093097;28;20208;-66
2023/03/20 07:52:47;;;;;;;35.77;27.80;;;12.20;99.00;;;;;;5094529;28;20225;-66
2023/03/20 07:55:15;;;;;;;37.70;27.50;;;12.20;99.10;;;;;;5083657;28;20204;-66
2023/03/20 07:57:46;;;;;;;32.67;26.40;;;12.30;99.10;;;;;;5090482;28;20299;-66
2023/03/20 08:00:15;;;;;;;33.67;26.27;;;12.30;99.10;;;;;;5092931;28;20201;-66
2023/03/20 08:02:43;;;;;;;31.20;23.53;;;12.40;99.10;;;;;;5093822;28;20242;-66
2023/03/20 08:05:11;;;;;;;35.23;24.37;;;12.40;99.10;;;;;;5090593;28;20195;-66
2023/03/20 08:07:38;;;;;;;33.00;24.00;;;12.40;99.10;;;;;;5082206;28;20217;-66
2023/03/20 08:10:05;;;;;;;32.87;23.03;;;12.50;99.10;;;;;;5090944;28;20279;-66
2023/03/20 08:12:32;;;;;;;30.67;23.47;;;12.50;99.00;;;;;;5084608;28;21001;-66
2023/03/20 08:14:59;;;;;;;33.20;22.70;;;12.60;99.00;;;;;;5090733;28;20210;-66
2023/03/20 08:17:26;;;;;;;29.53;20.97;;;12.60;98.80;;;;;;5090444;28;20200;-66
2023/03/20 08:19:53;;;;;;;32.40;23.73;;;12.70;98.70;;;;;;5093854;28;20235;-66
2023/03/20 08:22:20;;;;;;;31.23;22.17;;;12.70;98.50;;;;;;5091448;28;20231;-66
2023/03/20 08:24:47;;;;;;;28.87;22.63;;;12.80;98.50;;;;;;5092958;28;20273;-66
2023/03/20 08:27:14;;;;;;;28.87;23.63;;;12.80;98.40;;;;;;5090148;28;20227;-66
2023/03/20 08:29:41;;;;;;;31.93;24.20;;;12.90;98.00;;;;;;5091982;28;20633;-65
2023/03/20 08:32:08;;;;;;;30.00;24.33;;;12.90;97.90;;;;;;5091391;28;20196;-67
2023/03/20 08:34:35;;;;;;;29.87;23.70;;;12.90;97.90;;;;;;5089217;28;20291;-65
2023/03/20 08:37:03;;;;;;;32.90;24.70;;;12.90;97.70;;;;;;5086840;28;20544;-67
2023/03/20 08:39:32;;;;;;;31.97;24.87;;;12.90;97.80;;;;;;5093004;28;20200;-67
2023/03/20 08:41:59;;;;;;;34.53;23.83;;;12.80;97.70;;;;;;5088116;28;20216;-65
2023/03/20 08:44:27;;;;;;;28.53;23.77;;;12.80;97.80;;;;;;5091956;28;20251;-65
2023/03/20 08:46:55;;;;;;;32.23;23.83;;;12.80;97.60;;;;;;5087544;28;20549;-66
2023/03/20 08:49:22;;;;;;;30.90;24.87;;;12.80;97.50;;;;;;5085276;28;20280;-66
2023/03/20 08:51:49;;;;;;;30.73;23.63;;;12.80;97.50;;;;;;5090207;28;20200;-64
2023/03/20 08:54:17;;;;;;;29.13;23.50;;;12.80;97.70;;;;;;5086724;28;20216;-64
2023/03/20 08:56:45;;;;;;;32.33;23.77;;;12.80;97.50;;;;;;5091501;28;20288;-65
2023/03/20 08:59:12;;;;;;;37.03;25.93;;;12.90;97.50;;;;;;5093620;28;20636;-65
2023/03/20 09:01:40;;;;;;;28.73;22.93;;;12.90;97.60;;;;;;5093388;28;20646;-64
2023/03/20 09:04:16;;;;;;;34.40;24.70;;;13.00;97.40;;;;;;5087073;28;20204;-63
2023/03/20 09:06:43;;;;;;;28.53;23.00;;;13.10;97.40;;;;;;5094483;28;20224;-63
2023/03/20 09:09:14;;;;;;;30.67;24.23;;;13.10;97.20;;;;;;5096767;28;20204;-63
2023/03/20 09:11:41;;;;;;;33.10;23.03;;;13.10;96.70;;;;;;5085501;28;20200;-65
2023/03/20 09:14:09;;;;;;;32.73;24.47;;;13.20;96.70;;;;;;5093794;28;20205;-66
2023/03/20 09:16:36;;;;;;;30.03;22.33;;;13.10;96.50;;;;;;5093913;28;20224;-65
2023/03/20 09:19:05;;;;;;;31.70;24.03;;;13.20;96.60;;;;;;5097170;28;20306;-65
2023/03/20 09:21:32;;;;;;;30.27;23.10;;;13.20;96.40;;;;;;5091877;28;20239;-65
2023/03/20 09:23:59;;;;;;;28.37;21.77;;;13.30;96.50;;;;;;5092929;28;20521;-64
2023/03/20 09:26:26;;;;;;;32.10;23.43;;;13.40;96.30;;;;;;5097095;28;20290;-66
2023/03/20 09:28:53;;;;;;;29.57;24.13;;;13.40;96.30;;;;;;5093809;28;20193;-65
2023/03/20 09:31:21;;;;;;;31.07;23.80;;;13.50;96.40;;;;;;5095033;28;20203;-65
2023/03/20 09:33:49;;;;;;;30.10;23.47;;;13.60;96.60;;;;;;5094594;28;20275;-65
2023/03/20 09:36:16;;;;;;;26.97;23.43;;;13.70;96.00;;;;;;5096638;28;20210;-64
2023/03/20 09:38:43;;;;;;;26.97;22.93;;;13.80;95.70;;;;;;5093815;28;20290;-65
2023/03/20 09:41:19;;;;;;;32.50;24.03;;;13.80;95.40;;;;;;5094200;28;20210;-65
2023/03/20 09:44:01;;;;;;;30.07;24.93;;;13.80;95.10;;;;;;5095343;28;20259;-65
2023/03/20 09:46:28;;;;;;;28.97;23.87;;;13.90;95.20;;;;;;5095087;28;20283;-65
2023/03/20 09:49:16;;;;;;;29.17;23.30;;;13.90;95.10;;;;;;5097165;28;20197;-65
2023/03/20 09:52:00;;;;;;;29.27;23.77;;;13.90;95.00;;;;;;5095022;28;20614;-64
2023/03/20 09:54:34;;;;;;;28.00;23.63;;;13.90;94.80;;;;;;5093062;28;20224;-64
2023/03/20 09:57:44;;;;;;;29.77;24.37;;;14.00;94.90;;;;;;5093991;28;20220;-64
2023/03/20 10:00:21;;;;;;;23.83;21.27;;;14.10;95.20;;;;;;5092783;28;20583;-65
2023/03/20 10:03:02;;;;;;;30.23;22.87;;;14.20;95.40;;;;;;5095036;28;20626;-63
2023/03/20 10:05:44;;;;;;;27.07;21.93;;;14.30;95.30;;;;;;5091338;28;20216;-63
2023/03/20 10:08:17;;;;;;;25.83;23.13;;;14.40;95.00;;;;;;5095701;28;20215;-63
2023/03/20 10:11:04;;;;;;;25.83;22.23;;;14.50;94.80;;;;;;5091418;28;20650;-65
2023/03/20 10:13:37;;;;;;;28.10;22.80;;;14.70;94.60;;;;;;5093619;28;20565;-65
2023/03/20 10:16:16;;;;;;;25.87;23.03;;;14.80;93.60;;;;;;5078258;28;20212;-65
2023/03/20 10:18:53;;;;;;;27.90;22.63;;;14.80;93.70;;;;;;5093760;28;20215;-65
2023/03/20 10:21:38;;;;;;;27.83;23.63;;;14.90;93.80;;;;;;5090558;28;20212;-63
2023/03/20 10:24:21;;;;;;;27.97;22.67;;;15.10;93.90;;;;;;5092686;28;20219;-64
2023/03/20 10:26:52;;;;;;;28.70;23.27;;;15.20;93.70;;;;;;5090705;28;20202;-64
2023/03/20 10:29:40;;;;;;;28.70;22.20;;;15.30;93.60;;;;;;5092451;28;20198;-64
2023/03/20 10:32:40;;;;;;;26.03;20.77;;;15.40;92.90;;;;;;5090820;28;20201;-65
2023/03/20 10:35:32;;;;;;;27.63;22.50;;;15.50;92.50;;;;;;5093304;28;20201;-64
2023/03/20 10:38:12;;;;;;;34.50;24.60;;;15.50;92.00;;;;;;5090857;28;20202;-64
2023/03/20 10:40:41;;;;;;;27.93;23.50;;;15.50;91.50;;;;;;5094508;28;20602;-64
2023/03/20 10:43:18;;;;;;;30.13;24.13;;;15.60;91.80;;;;;;5092950;28;20244;-64
2023/03/20 10:45:53;;;;;;;26.83;23.23;;;15.60;91.90;;;;;;5086184;28;20879;-64
2023/03/20 10:48:33;;;;;;;29.47;23.57;;;15.70;91.80;;;;;;5092878;28;20501;-64
2023/03/20 10:51:02;;;;;;;29.10;23.73;;;15.70;91.50;;;;;;5094280;28;20203;-64
2023/03/20 10:53:58;;;;;;;30.43;24.83;;;15.70;91.30;;;;;;5089979;28;20535;-65
2023/03/20 10:56:42;;;;;;;28.33;23.27;;;15.80;90.90;;;;;;5092477;28;20194;-64
2023/03/20 10:59:24;;;;;;;27.10;22.30;;;15.80;91.00;;;;;;5091855;28;20201;-64
2023/03/20 11:01:51;;;;;;;28.73;23.40;;;15.80;90.90;;;;;;5092139;28;20259;-64
2023/03/20 11:04:19;;;;;;;30.67;23.17;;;15.90;90.40;;;;;;5091484;28;20201;-64
2023/03/20 11:06:59;;;;;;;31.70;24.90;;;15.90;90.30;;;;;;5093398;28;20610;-64
2023/03/20 11:09:28;;;;;;;28.47;24.00;;;15.80;90.20;;;;;;5091202;28;20201;-64
2023/03/20 11:11:58;;;;;;;31.63;25.10;;;15.80;89.80;;;;;;5092765;28;20535;-64
2023/03/20 11:14:34;;;;;;;30.03;26.77;;;15.80;90.00;;;;;;5088028;28;20207;-64
2023/03/20 11:17:03;;;;;;;32.47;28.90;;;15.80;89.80;;;;;;5090430;28;20268;-64
2023/03/20 11:19:35;;;;;;;36.37;28.73;;;15.80;89.10;;;;;;5086803;28;20706;-64
2023/03/20 11:22:08;;;;;;;33.37;28.20;;;15.70;89.30;;;;;;5091547;28;20201;-63
2023/03/20 11:24:39;;;;;;;37.27;28.83;;;15.60;89.60;;;;;;5087419;28;20558;-64
2023/03/20 11:27:10;;;;;;;34.73;28.47;;;15.60;89.30;;;;;;5090918;28;20222;-64
2023/03/20 11:29:40;;;;;;;34.37;28.77;;;15.50;89.80;;;;;;5093473;28;20728;-64
2023/03/20 11:32:22;;;;;;;36.30;28.63;;;15.50;89.10;;;;;;5091188;28;20281;-64
2023/03/20 11:34:50;;;;;;;37.30;30.03;;;15.40;89.60;;;;;;5092749;28;20200;-64
2023/03/20 11:37:27;;;;;;;39.53;30.43;;;15.40;89.40;;;;;;5084399;28;20255;-64
2023/03/20 11:40:00;;;;;;;35.80;28.80;;;15.40;89.70;;;;;;5089956;28;20234;-64
2023/03/20 11:42:29;;;;;;;37.33;29.47;;;15.40;90.00;;;;;;5092025;28;20199;-64
2023/03/20 11:45:02;;;;;;;34.63;30.07;;;15.40;90.00;;;;;;5087920;28;20569;-64
2023/03/20 11:47:34;;;;;;;36.83;29.90;;;15.50;90.10;;;;;;5093364;28;20233;-64
2023/03/20 11:50:05;;;;;;;39.17;30.43;;;15.60;90.00;;;;;;5091321;28;20201;-64
2023/03/20 11:52:37;;;;;;;33.30;27.03;;;15.70;90.00;;;;;;5092480;28;20676;-63
2023/03/20 11:55:23;;;;;;;33.73;27.60;;;15.80;89.60;;;;;;5091858;28;20201;-64
2023/03/20 11:57:54;;;;;;;31.13;26.77;;;16.00;88.90;;;;;;5089607;28;20196;-63
2023/03/20 12:00:23;;;;;;;37.60;28.17;;;16.20;88.30;;;;;;5090605;28;20541;-63
2023/03/20 12:02:50;;;;;;;32.40;25.87;;;16.30;88.00;;;;;;5090995;28;20203;-64
2023/03/20 12:05:30;;;;;;;34.30;28.47;;;16.40;86.80;;;;;;5091303;28;20216;-63
2023/03/20 12:08:06;;;;;;;31.17;26.47;;;16.40;84.70;;;;;;5091824;28;20709;-65
2023/03/20 12:10:39;;;;;;;34.40;27.53;;;16.40;85.10;;;;;;5090941;28;20666;-63
2023/03/20 12:13:18;;;;;;;30.43;26.70;;;16.40;85.20;;;;;;5094042;28;20202;-67
2023/03/20 12:15:51;;;;;;;27.07;24.10;;;16.40;86.10;;;;;;5090459;28;20223;-62
2023/03/20 12:18:51;;;;;;;28.47;22.20;;;16.40;85.60;;;;;;5088927;28;20210;-66
2023/03/20 12:21:37;;;;;;;27.47;22.10;;;16.50;85.50;;;;;;5087725;28;20212;-63
2023/03/20 12:24:28;;;;;;;24.47;21.87;;;16.60;85.00;;;;;;5092388;28;20204;-64
2023/03/20 12:26:59;;;;;;;24.33;21.30;;;16.70;84.40;;;;;;5090011;28;20219;-64
2023/03/20 12:29:49;;;;;;;27.23;22.83;;;16.70;83.20;;;;;;5089830;28;20199;-65
2023/03/20 12:32:40;;;;;;;32.10;23.13;;;16.80;83.20;;;;;;5089376;28;20204;-63
2023/03/20 12:35:25;;;;;;;24.93;20.83;;;16.80;83.30;;;;;;5089790;28;20228;-63
2023/03/20 12:37:52;;;;;;;27.63;21.73;;;16.80;81.10;;;;;;5091864;28;20696;-64
2023/03/20 12:40:42;;;;;;;26.27;21.33;;;16.80;79.80;;;;;;5088402;28;20206;-62
2023/03/20 12:43:24;;;;;;;28.17;24.13;;;16.60;79.80;;;;;;5088860;28;20328;-65
2023/03/20 12:46:13;;;;;;;28.43;22.27;;;16.50;80.20;;;;;;5089132;28;20282;-63
2023/03/20 12:48:51;;;;;;;25.63;22.70;;;16.40;80.00;;;;;;5091406;28;20225;-63
2023/03/20 12:51:42;;;;;;;28.07;22.63;;;16.40;80.30;;;;;;5091075;28;20503;-64
2023/03/20 12:54:33;;;;;;;26.07;22.67;;;16.40;80.10;;;;;;5089065;28;20282;-64
2023/03/20 12:57:22;;;;;;;26.83;23.13;;;16.50;80.80;;;;;;5090219;28;20230;-63
2023/03/20 13:00:01;;;;;;;29.40;22.63;;;16.60;81.60;;;;;;5089548;28;20205;-66
2023/03/20 13:02:40;;;;;;;25.90;22.70;;;16.80;79.50;;;;;;5089247;28;20677;-65
2023/03/20 13:05:10;;;;;;;25.60;22.33;;;16.90;79.10;;;;;;5086434;28;20249;-62
2023/03/20 13:07:49;;;;;;;25.63;21.93;;;17.00;76.00;;;;;;5088697;28;20285;-62